Time;durP1;ratioP1;P1;durP2;ratioP2;P2;SDS_P1;SDS_P2;PMS_P1;PMS_P2;Temp;Humidity;BMP_temperature;BMP_pressure;BME280_temperature;BME280_humidity;BME280_pressure;Samples;Min_cycle;Max_cycle;Signal;HPM_P1;HPM_P2
2022/11/01 00:00:49;;;;;;;3.30;0.70;;;;;;;;;;4920393;28;20042;-65
2022/11/01 00:03:16;;;;;;;5.13;1.13;;;;;;;;;;4918554;28;20067;-64
2022/11/01 00:05:42;;;;;;;7.93;0.93;;;;;;;;;;4925746;28;20039;-64
2022/11/01 00:08:09;;;;;;;2.70;1.00;;;;;;;;;;4926691;28;20043;-65
2022/11/01 00:10:35;;;;;;;2.97;0.80;;;;;;;;;;4934430;28;20157;-66
2022/11/01 00:13:02;;;;;;;3.05;0.90;;;;;;;;;;4942200;28;20303;-67
2022/11/01 00:15:29;;;;;;;4.32;0.90;;;;;;;;;;4941826;28;20047;-64
2022/11/01 00:17:55;;;;;;;2.40;0.80;;;;;;;;;;4942382;28;20440;-66
2022/11/01 00:20:22;;;;;;;4.05;0.90;;;;;;;;;;4941419;28;20137;-64
2022/11/01 00:22:48;;;;;;;2.88;0.70;;;;;;;;;;4946658;28;20047;-65
2022/11/01 00:25:15;;;;;;;3.38;0.80;;;;;;;;;;4947263;28;20166;-66
2022/11/01 00:27:42;;;;;;;6.78;0.95;;;;;;;;;;4943200;28;20039;-66
2022/11/01 00:30:11;;;;;;;6.75;1.00;;;;;;;;;;4942627;28;20486;-64
2022/11/01 00:32:38;;;;;;;4.65;1.00;;;;;;;;;;4941167;28;20046;-64
2022/11/01 00:35:05;;;;;;;7.60;1.60;;;;;;;;;;4942364;28;20157;-66
2022/11/01 00:37:31;;;;;;;2.95;0.88;;;;;;;;;;4955539;28;20323;-65
2022/11/01 00:39:58;;;;;;;3.83;0.98;;;;;;;;;;4955899;28;20046;-65
2022/11/01 00:42:24;;;;;;;2.97;0.90;;;;;;;;;;4952326;28;20031;-64
2022/11/01 00:44:51;;;;;;;4.70;1.00;;;;;;;;;;4943411;28;20046;-65
2022/11/01 00:47:17;;;;;;;6.35;1.63;;;;;;;;;;4943749;28;20095;-67
2022/11/01 00:49:44;;;;;;;4.55;0.98;;;;;;;;;;4945504;28;20114;-66
2022/11/01 00:52:11;;;;;;;5.40;0.90;;;;;;;;;;4946968;28;20042;-66
2022/11/01 00:54:37;;;;;;;3.78;0.98;;;;;;;;;;4945089;28;20038;-66
2022/11/01 00:57:04;;;;;;;3.60;0.88;;;;;;;;;;4942165;28;20094;-67
2022/11/01 00:59:33;;;;;;;11.63;1.50;;;;;;;;;;4946490;28;20050;-66
2022/11/01 01:02:00;;;;;;;7.47;1.27;;;;;;;;;;4947394;28;20074;-65
2022/11/01 01:04:27;;;;;;;2.60;0.77;;;;;;;;;;4944134;28;21422;-65
2022/11/01 01:06:53;;;;;;;6.30;1.13;;;;;;;;;;4945952;28;20043;-65
2022/11/01 01:09:20;;;;;;;5.90;1.00;;;;;;;;;;4940035;28;20448;-65
2022/11/01 01:11:47;;;;;;;5.32;1.00;;;;;;;;;;4942327;28;20039;-64
2022/11/01 01:14:13;;;;;;;4.15;0.93;;;;;;;;;;4955586;28;20043;-65
2022/11/01 01:16:40;;;;;;;4.32;1.25;;;;;;;;;;4940251;28;20497;-66
2022/11/01 01:19:07;;;;;;;4.03;1.10;;;;;;;;;;4941475;28;20222;-64
2022/11/01 01:21:33;;;;;;;6.95;1.30;;;;;;;;;;4943104;28;20138;-63
2022/11/01 01:24:00;;;;;;;5.95;1.15;;;;;;;;;;4946561;28;20047;-62
2022/11/01 01:26:26;;;;;;;3.40;1.10;;;;;;;;;;4945704;28;20039;-64
2022/11/01 01:28:54;;;;;;;10.20;1.30;;;;;;;;;;4945119;28;20573;-61
2022/11/01 01:31:22;;;;;;;3.63;1.08;;;;;;;;;;4947008;28;20039;-67
2022/11/01 01:33:48;;;;;;;6.82;1.55;;;;;;;;;;4947369;28;20027;-67
2022/11/01 01:36:15;;;;;;;10.07;1.77;;;;;;;;;;4947424;28;20038;-64
2022/11/01 01:38:41;;;;;;;5.95;1.40;;;;;;;;;;4956963;28;20387;-64
2022/11/01 01:43:53;;;;;;;9.65;2.13;;;;;;;;;;4946947;28;20130;-64
2022/11/01 01:46:20;;;;;;;5.68;1.30;;;;;;;;;;4943512;28;20165;-66
2022/11/01 01:48:49;;;;;;;6.75;1.80;;;;;;;;;;4946442;28;20177;-65
2022/11/01 01:51:17;;;;;;;7.93;1.80;;;;;;;;;;4961411;28;20497;-63
2022/11/01 01:53:45;;;;;;;6.18;2.10;;;;;;;;;;4951402;28;20043;-64
2022/11/01 01:56:17;;;;;;;6.78;2.28;;;;;;;;;;4945898;28;20039;-65
2022/11/01 01:58:46;;;;;;;6.88;2.80;;;;;;;;;;4964195;28;20058;-64
2022/11/01 02:01:14;;;;;;;11.00;3.70;;;;;;;;;;4952259;28;20764;-64
2022/11/01 02:04:01;;;;;;;12.80;3.08;;;;;;;;;;4946085;28;20298;-65
2022/11/01 02:06:28;;;;;;;5.35;2.40;;;;;;;;;;4956254;28;20531;-63
2022/11/01 02:08:56;;;;;;;9.15;2.08;;;;;;;;;;4961654;28;20043;-64
2022/11/01 02:11:23;;;;;;;6.85;2.10;;;;;;;;;;4953134;28;20053;-67
2022/11/01 02:13:50;;;;;;;8.80;2.13;;;;;;;;;;4945150;28;20039;-64
2022/11/01 02:16:34;;;;;;;8.57;2.83;;;;;;;;;;4946242;28;20446;-67
2022/11/01 02:19:17;;;;;;;7.97;2.60;;;;;;;;;;4945302;28;20059;-65
2022/11/01 02:21:55;;;;;;;7.72;2.30;;;;;;;;;;4943847;28;20085;-64
2022/11/01 02:24:41;;;;;;;6.05;2.15;;;;;;;;;;4962440;28;21253;-64
2022/11/01 02:27:23;;;;;;;6.38;1.70;;;;;;;;;;4962789;28;20039;-63
2022/11/01 02:30:01;;;;;;;5.45;2.17;;;;;;;;;;4944196;28;20386;-64
2022/11/01 02:32:43;;;;;;;6.95;1.70;;;;;;;;;;4945130;28;20083;-63
2022/11/01 02:35:12;;;;;;;4.82;1.60;;;;;;;;;;4962169;28;20047;-63
2022/11/01 02:37:39;;;;;;;9.55;2.08;;;;;;;;;;4946220;28;20494;-63
2022/11/01 02:40:08;;;;;;;8.93;1.83;;;;;;;;;;4946105;28;21096;-68
2022/11/01 02:42:45;;;;;;;11.07;2.20;;;;;;;;;;4961929;28;20126;-64
2022/11/01 02:45:27;;;;;;;6.10;2.10;;;;;;;;;;4949451;28;20508;-67
2022/11/01 02:47:58;;;;;;;5.72;1.95;;;;;;;;;;4944536;28;20035;-63
2022/11/01 02:50:30;;;;;;;5.88;1.88;;;;;;;;;;4947709;28;20039;-65
2022/11/01 02:52:57;;;;;;;6.53;1.58;;;;;;;;;;4949195;28;20170;-65
2022/11/01 02:55:28;;;;;;;4.80;1.52;;;;;;;;;;4947433;28;20083;-65
2022/11/01 02:58:13;;;;;;;7.38;1.30;;;;;;;;;;4949476;28;20917;-66
2022/11/01 03:00:41;;;;;;;3.03;1.20;;;;;;;;;;4947670;28;20412;-65
2022/11/01 03:03:16;;;;;;;4.35;1.25;;;;;;;;;;4948341;28;20507;-67
2022/11/01 03:05:49;;;;;;;3.03;1.00;;;;;;;;;;4947474;28;20035;-63
2022/11/01 03:08:28;;;;;;;4.32;1.50;;;;;;;;;;4946928;28;20047;-64
2022/11/01 03:11:06;;;;;;;4.80;1.30;;;;;;;;;;4962500;28;20460;-62
2022/11/01 03:13:42;;;;;;;4.22;1.27;;;;;;;;;;4949186;28;20460;-64
2022/11/01 03:16:15;;;;;;;4.30;1.30;;;;;;;;;;4950500;28;20051;-65
2022/11/01 03:18:47;;;;;;;3.40;1.17;;;;;;;;;;4948007;28;21303;-67
2022/11/01 03:21:17;;;;;;;3.88;1.38;;;;;;;;;;4948667;28;20497;-64
2022/11/01 03:23:53;;;;;;;3.90;1.20;;;;;;;;;;4961359;28;20066;-64
2022/11/01 03:26:24;;;;;;;4.97;1.38;;;;;;;;;;4947497;28;20126;-70
2022/11/01 03:28:54;;;;;;;3.25;1.33;;;;;;;;;;4947332;28;20039;-64
2022/11/01 03:31:24;;;;;;;5.40;1.85;;;;;;;;;;4959151;28;20046;-63
2022/11/01 03:33:54;;;;;;;5.85;1.83;;;;;;;;;;4948521;28;20473;-63
2022/11/01 03:36:22;;;;;;;4.65;1.80;;;;;;;;;;4947636;28;20043;-66
2022/11/01 03:38:57;;;;;;;4.70;1.90;;;;;;;;;;4946990;28;20059;-66
2022/11/01 03:41:25;;;;;;;5.90;1.60;;;;;;;;;;4946830;28;20046;-62
2022/11/01 03:43:52;;;;;;;7.65;1.90;;;;;;;;;;4948206;28;20039;-65
2022/11/01 03:46:19;;;;;;;6.90;2.00;;;;;;;;;;4947655;28;20569;-65
2022/11/01 03:48:46;;;;;;;8.00;2.08;;;;;;;;;;4947080;28;20438;-65
2022/11/01 03:51:12;;;;;;;11.57;2.15;;;;;;;;;;4948037;28;20039;-66
2022/11/01 03:53:39;;;;;;;5.60;2.03;;;;;;;;;;4946428;28;20433;-64
2022/11/01 03:56:06;;;;;;;7.85;1.73;;;;;;;;;;4948067;28;20058;-64
2022/11/01 03:58:45;;;;;;;4.53;1.73;;;;;;;;;;4946059;28;21025;-65
2022/11/01 04:01:13;;;;;;;4.32;1.65;;;;;;;;;;4946922;28;20173;-65
2022/11/01 04:03:40;;;;;;;5.97;1.88;;;;;;;;;;4945618;28;20054;-64
2022/11/01 04:06:07;;;;;;;4.18;1.83;;;;;;;;;;4947269;28;20047;-65
2022/11/01 04:08:33;;;;;;;5.68;3.30;;;;;;;;;;4952701;28;20061;-63
2022/11/01 04:11:00;;;;;;;5.95;2.63;;;;;;;;;;4952289;28;20047;-67
2022/11/01 04:13:27;;;;;;;9.43;2.85;;;;;;;;;;4944993;28;20039;-66
2022/11/01 04:21:40;;;;;;;7.00;2.80;;;;;;;;;;4946027;28;20457;-65
2022/11/01 04:24:09;;;;;;;5.22;2.20;;;;;;;;;;4948869;28;20034;-65
2022/11/01 04:26:55;;;;;;;8.70;3.03;;;;;;;;;;4988143;28;20045;-63
2022/11/01 04:29:22;;;;;;;8.23;3.33;;;;;;;;;;4986911;28;20724;-65
2022/11/01 04:31:48;;;;;;;11.60;5.00;;;;;;;;;;4989241;28;20046;-64
2022/11/01 04:34:40;;;;;;;7.95;4.43;;;;;;;;;;4989210;28;20116;-65
2022/11/01 04:37:01;;;;;;;8.23;3.67;;;;;;;;;;4987025;28;20066;-65
2022/11/01 04:39:28;;;;;;;8.98;3.47;;;;;;;;;;4987491;28;20246;-64
2022/11/01 04:41:55;;;;;;;6.70;3.00;;;;;;;;;;4987920;28;20585;-63
2022/11/01 04:44:21;;;;;;;9.82;5.55;;;;;;;;;;4987089;28;20045;-64
2022/11/01 04:46:48;;;;;;;9.20;4.57;;;;;;;;;;4988690;28;20101;-64
2022/11/01 04:49:14;;;;;;;5.65;3.08;;;;;;;;;;4987887;28;20551;-65
2022/11/01 04:51:42;;;;;;;5.93;3.58;;;;;;;;;;4988470;28;20076;-65
2022/11/01 04:54:08;;;;;;;7.13;4.95;;;;;;;;;;4971657;28;20050;-63
2022/11/01 04:56:35;;;;;;;6.63;3.60;;;;;;;;;;4987944;28;20428;-64
2022/11/01 04:59:01;;;;;;;5.18;3.17;;;;;;;;;;4949589;28;20058;-65
2022/11/01 05:01:28;;;;;;;5.43;3.47;;;;;;;;;;4946359;28;20146;-65
2022/11/01 05:03:55;;;;;;;5.30;3.63;;;;;;;;;;4944534;28;20043;-64
2022/11/01 05:06:21;;;;;;;8.27;4.65;;;;;;;;;;4946484;28;20379;-65
2022/11/01 05:08:48;;;;;;;6.32;4.03;;;;;;;;;;4957550;28;20043;-64
2022/11/01 05:11:14;;;;;;;5.07;3.15;;;;;;;;;;4952835;28;20098;-64
2022/11/01 05:13:41;;;;;;;6.80;3.20;;;;;;;;;;4950404;28;20043;-65
2022/11/01 05:16:07;;;;;;;5.72;3.28;;;;;;;;;;4946522;28;20540;-65
2022/11/01 05:18:34;;;;;;;8.23;3.40;;;;;;;;;;4945203;28;20062;-65
2022/11/01 05:21:01;;;;;;;7.22;2.85;;;;;;;;;;4945448;28;20039;-64
2022/11/01 05:23:27;;;;;;;5.57;3.13;;;;;;;;;;4946781;28;20035;-65
2022/11/01 05:25:54;;;;;;;11.85;3.10;;;;;;;;;;4946570;28;20050;-64
2022/11/01 05:28:21;;;;;;;6.10;2.92;;;;;;;;;;4973095;28;20034;-64
2022/11/01 05:30:48;;;;;;;7.43;3.50;;;;;;;;;;4947496;28;20065;-64
2022/11/01 05:33:15;;;;;;;4.82;2.63;;;;;;;;;;4946786;28;20459;-64
2022/11/01 05:35:41;;;;;;;5.13;2.33;;;;;;;;;;4945562;28;20031;-63
2022/11/01 05:38:09;;;;;;;5.45;2.20;;;;;;;;;;4945986;28;21918;-65
2022/11/01 05:40:36;;;;;;;4.13;1.73;;;;;;;;;;4944949;28;20616;-65
2022/11/01 05:43:02;;;;;;;4.15;1.85;;;;;;;;;;4945754;28;20485;-64
2022/11/01 05:45:29;;;;;;;6.22;1.83;;;;;;;;;;4945841;28;20444;-64
2022/11/01 05:47:55;;;;;;;4.13;1.65;;;;;;;;;;4950945;28;20050;-65
2022/11/01 05:50:22;;;;;;;7.60;1.45;;;;;;;;;;4945772;28;20075;-65
2022/11/01 05:52:49;;;;;;;3.10;1.35;;;;;;;;;;4957045;23;20068;-64
2022/11/01 05:55:15;;;;;;;3.10;1.20;;;;;;;;;;4988460;28;20033;-64
2022/11/01 05:57:42;;;;;;;4.18;1.23;;;;;;;;;;4990971;28;20038;-64
2022/11/01 06:00:09;;;;;;;2.42;0.82;;;;;;;;;;4991797;28;20451;-64
2022/11/01 06:02:36;;;;;;;2.88;1.00;;;;;;;;;;4990989;28;20596;-65
2022/11/01 06:05:02;;;;;;;5.10;0.98;;;;;;;;;;4991404;28;20117;-66
2022/11/01 06:07:29;;;;;;;2.05;0.68;;;;;;;;;;5005899;28;20042;-63
2022/11/01 06:09:57;;;;;;;1.63;0.60;;;;;;;;;;4992944;28;20436;-63
2022/11/01 06:12:24;;;;;;;2.33;0.85;;;;;;;;;;5006933;28;22260;-64
2022/11/01 06:14:51;;;;;;;2.60;0.90;;;;;;;;;;4991447;28;20041;-63
2022/11/01 06:17:17;;;;;;;6.60;1.13;;;;;;;;;;4992643;28;20034;-64
2022/11/01 06:19:44;;;;;;;3.20;1.30;;;;;;;;;;4991006;28;20531;-62
2022/11/01 06:22:10;;;;;;;2.70;0.77;;;;;;;;;;4992592;28;20152;-63
2022/11/01 06:24:37;;;;;;;2.75;0.98;;;;;;;;;;4991353;28;20092;-64
2022/11/01 06:27:04;;;;;;;2.85;1.00;;;;;;;;;;4992283;28;20185;-64
2022/11/01 06:29:30;;;;;;;3.10;1.10;;;;;;;;;;4990591;28;20428;-62
2022/11/01 06:31:57;;;;;;;1.92;0.75;;;;;;;;;;4992151;28;20124;-64
2022/11/01 06:34:23;;;;;;;2.80;1.20;;;;;;;;;;4991619;28;20037;-64
2022/11/01 06:36:50;;;;;;;3.20;1.40;;;;;;;;;;4992761;28;20041;-63
2022/11/01 06:39:17;;;;;;;2.50;1.00;;;;;;;;;;4992090;28;20046;-63
2022/11/01 06:41:44;;;;;;;3.05;1.25;;;;;;;;;;4990299;28;20049;-63
2022/11/01 06:44:10;;;;;;;2.78;1.17;;;;;;;;;;4992763;28;20041;-65
2022/11/01 06:46:37;;;;;;;3.63;1.60;;;;;;;;;;4994100;28;20075;-62
2022/11/01 06:49:03;;;;;;;6.03;1.33;;;;;;;;;;4994881;28;20845;-62
2022/11/01 06:51:30;;;;;;;2.80;1.08;;;;;;;;;;4994943;28;20042;-63
2022/11/01 06:53:56;;;;;;;2.80;1.10;;;;;;;;;;4994783;28;20061;-63
2022/11/01 06:56:23;;;;;;;3.15;1.40;;;;;;;;;;4995326;28;20046;-64
2022/11/01 06:58:50;;;;;;;3.45;1.48;;;;;;;;;;4994219;28;20522;-63
2022/11/01 07:01:20;;;;;;;3.50;1.52;;;;;;;;;;4995834;28;20037;-63
2022/11/01 07:03:51;;;;;;;2.80;1.23;;;;;;;;;;4995088;28;20056;-63
2022/11/01 07:06:18;;;;;;;3.45;1.45;;;;;;;;;;4995547;28;20053;-64
2022/11/01 07:08:45;;;;;;;3.00;1.30;;;;;;;;;;4993801;28;20046;-64
2022/11/01 07:11:12;;;;;;;3.13;1.30;;;;;;;;;;4994893;28;22385;-65
2022/11/01 07:13:38;;;;;;;2.85;1.08;;;;;;;;;;4994283;28;20038;-63
2022/11/01 07:16:05;;;;;;;3.30;1.40;;;;;;;;;;4995668;28;20034;-63
2022/11/01 07:18:33;;;;;;;6.53;1.73;;;;;;;;;;4993478;28;20131;-63
2022/11/01 07:21:03;;;;;;;3.70;1.70;;;;;;;;;;4994578;28;20541;-63
2022/11/01 07:23:30;;;;;;;4.10;1.30;;;;;;;;;;4994427;28;20347;-63
2022/11/01 07:25:57;;;;;;;3.60;1.50;;;;;;;;;;4995084;28;20702;-62
2022/11/01 07:28:23;;;;;;;2.97;1.48;;;;;;;;;;4992488;28;20073;-62
2022/11/01 07:30:51;;;;;;;3.20;1.33;;;;;;;;;;4994507;28;20026;-63
2022/11/01 07:33:18;;;;;;;3.47;1.52;;;;;;;;;;4994002;28;20034;-63
2022/11/01 07:35:45;;;;;;;4.07;1.60;;;;;;;;;;4993939;28;20042;-63
2022/11/01 07:38:12;;;;;;;3.22;1.52;;;;;;;;;;4993972;28;20666;-64
2022/11/01 07:40:38;;;;;;;4.05;1.83;;;;;;;;;;4993131;28;20048;-64
2022/11/01 07:43:06;;;;;;;3.08;1.33;;;;;;;;;;4993861;28;20491;-63
2022/11/01 07:45:34;;;;;;;4.00;1.70;;;;;;;;;;4993531;28;20049;-63
2022/11/01 07:48:11;;;;;;;3.30;1.35;;;;;;;;;;4994328;28;20538;-64
2022/11/01 07:50:38;;;;;;;3.47;1.45;;;;;;;;;;4993849;28;20056;-64
2022/11/01 07:53:06;;;;;;;3.17;1.50;;;;;;;;;;4994219;28;20050;-64
2022/11/01 07:55:33;;;;;;;3.22;1.25;;;;;;;;;;4993792;28;20053;-63
2022/11/01 07:57:59;;;;;;;4.72;1.70;;;;;;;;;;4994176;28;20049;-64
2022/11/01 08:00:26;;;;;;;3.03;1.35;;;;;;;;;;4993072;28;20049;-62
2022/11/01 08:02:59;;;;;;;3.50;1.38;;;;;;;;;;4995519;28;20049;-64
2022/11/01 08:05:26;;;;;;;2.90;1.30;;;;;;;;;;4993606;28;20057;-65
2022/11/01 08:07:53;;;;;;;3.00;1.38;;;;;;;;;;4994644;28;20072;-63
2022/11/01 08:10:20;;;;;;;4.22;1.30;;;;;;;;;;4994511;28;20108;-64
2022/11/01 08:12:46;;;;;;;3.15;1.50;;;;;;;;;;5009447;28;20038;-64
2022/11/01 08:15:13;;;;;;;2.85;1.13;;;;;;;;;;4993280;28;20092;-64
2022/11/01 08:17:39;;;;;;;3.45;1.38;;;;;;;;;;4991649;28;20970;-64
2022/11/01 08:20:06;;;;;;;3.70;1.50;;;;;;;;;;4987913;28;20046;-64
2022/11/01 08:22:33;;;;;;;3.15;1.50;;;;;;;;;;4993553;28;20037;-64
2022/11/01 08:25:00;;;;;;;3.45;1.38;;;;;;;;;;4994677;28;20516;-63
2022/11/01 08:27:27;;;;;;;3.40;1.45;;;;;;;;;;4992538;28;20532;-64
2022/11/01 08:29:53;;;;;;;3.08;1.33;;;;;;;;;;4993469;28;20052;-62
2022/11/01 08:32:21;;;;;;;2.90;1.20;;;;;;;;;;4992990;28;20089;-62
2022/11/01 08:34:47;;;;;;;2.50;1.08;;;;;;;;;;4994054;28;20514;-62
2022/11/01 08:37:14;;;;;;;2.38;0.70;;;;;;;;;;4993381;28;20042;-63
2022/11/01 08:39:41;;;;;;;1.77;0.90;;;;;;;;;;4993138;28;20095;-63
2022/11/01 08:42:09;;;;;;;2.83;1.10;;;;;;;;;;4993515;28;20952;-63
2022/11/01 08:44:36;;;;;;;3.28;1.42;;;;;;;;;;4992299;28;20041;-62
2022/11/01 08:47:02;;;;;;;3.50;1.45;;;;;;;;;;4992639;28;20041;-64
2022/11/01 08:49:29;;;;;;;4.72;1.50;;;;;;;;;;4992417;28;20121;-63
2022/11/01 08:51:56;;;;;;;2.78;1.10;;;;;;;;;;4993684;28;20049;-64
2022/11/01 08:54:23;;;;;;;3.92;1.38;;;;;;;;;;4992572;28;20108;-64
2022/11/01 08:56:49;;;;;;;2.13;0.90;;;;;;;;;;4992932;28;20108;-63
2022/11/01 08:59:16;;;;;;;2.92;1.27;;;;;;;;;;4992395;28;20080;-64
2022/11/01 09:01:43;;;;;;;3.17;1.10;;;;;;;;;;4991944;28;20955;-64
2022/11/01 09:04:09;;;;;;;2.92;1.30;;;;;;;;;;4992308;28;20042;-64
2022/11/01 09:06:36;;;;;;;2.95;1.00;;;;;;;;;;4991993;28;20136;-64
2022/11/01 09:09:02;;;;;;;2.78;0.98;;;;;;;;;;4992575;28;20156;-64
2022/11/01 09:11:29;;;;;;;3.50;1.15;;;;;;;;;;4993038;28;20038;-63
2022/11/01 09:14:00;;;;;;;3.00;1.25;;;;;;;;;;4992234;28;20527;-63
2022/11/01 09:16:26;;;;;;;4.65;1.23;;;;;;;;;;4991940;28;20157;-62
2022/11/01 09:18:53;;;;;;;2.65;1.05;;;;;;;;;;4991205;28;20057;-63
2022/11/01 09:21:19;;;;;;;2.88;1.10;;;;;;;;;;4992523;28;20037;-64
2022/11/01 09:23:46;;;;;;;2.92;1.05;;;;;;;;;;4993337;28;20072;-63
2022/11/01 09:26:13;;;;;;;2.65;1.10;;;;;;;;;;4992943;28;20070;-63
2022/11/01 09:28:40;;;;;;;3.20;1.10;;;;;;;;;;4989813;28;20053;-63
2022/11/01 09:31:07;;;;;;;3.05;1.33;;;;;;;;;;4992828;28;20173;-61
2022/11/01 09:33:34;;;;;;;2.75;0.93;;;;;;;;;;4991820;28;20050;-62
2022/11/01 09:36:01;;;;;;;3.45;1.25;;;;;;;;;;4992612;28;20107;-63
2022/11/01 09:38:28;;;;;;;2.38;0.90;;;;;;;;;;4991141;28;20536;-63
2022/11/01 09:40:58;;;;;;;3.30;1.40;;;;;;;;;;4992277;28;20034;-63
2022/11/01 09:43:25;;;;;;;3.28;1.40;;;;;;;;;;4991590;28;20073;-62
2022/11/01 09:45:53;;;;;;;3.10;1.30;;;;;;;;;;4992566;28;20034;-63
2022/11/01 09:48:20;;;;;;;2.88;1.27;;;;;;;;;;4991180;28;20530;-64
2022/11/01 09:50:47;;;;;;;3.45;1.30;;;;;;;;;;4991597;28;20069;-63
2022/11/01 09:53:25;;;;;;;2.85;1.27;;;;;;;;;;4993132;28;20133;-63
2022/11/01 09:56:04;;;;;;;3.33;1.48;;;;;;;;;;4992518;28;20050;-64
2022/11/01 09:58:54;;;;;;;2.65;1.20;;;;;;;;;;4991344;28;20046;-63
2022/11/01 10:01:40;;;;;;;3.10;1.30;;;;;;;;;;4985188;28;20042;-64
2022/11/01 10:04:19;;;;;;;2.65;1.23;;;;;;;;;;4991609;28;20093;-64
2022/11/01 10:06:50;;;;;;;3.53;1.50;;;;;;;;;;4992095;28;20124;-64
2022/11/01 10:09:35;;;;;;;4.03;1.85;;;;;;;;;;4992245;28;20041;-64
2022/11/01 10:12:05;;;;;;;3.33;1.45;;;;;;;;;;4973463;28;20077;-64
2022/11/01 10:14:43;;;;;;;4.00;1.70;;;;;;;;;;4991581;28;20618;-64
2022/11/01 10:17:19;;;;;;;2.70;1.00;;;;;;;;;;4991516;28;20033;-65
2022/11/01 10:19:50;;;;;;;5.45;2.42;;;;;;;;;;4990335;28;20054;-64
2022/11/01 10:22:28;;;;;;;4.78;2.40;;;;;;;;;;4995146;28;20076;-63
2022/11/01 10:25:01;;;;;;;4.35;2.08;;;;;;;;;;4993299;28;20093;-64
2022/11/01 10:27:28;;;;;;;5.15;2.60;;;;;;;;;;4993831;28;20065;-64
2022/11/01 10:30:00;;;;;;;4.80;2.53;;;;;;;;;;4994395;28;20129;-65
2022/11/01 10:32:32;;;;;;;4.78;2.35;;;;;;;;;;4996237;28;20232;-63
2022/11/01 10:35:01;;;;;;;4.45;2.28;;;;;;;;;;4995265;28;20038;-65
2022/11/01 10:37:48;;;;;;;4.28;2.40;;;;;;;;;;4994828;28;20046;-66
2022/11/01 10:40:15;;;;;;;4.68;2.58;;;;;;;;;;4962954;28;20197;-64
2022/11/01 10:42:42;;;;;;;5.00;2.67;;;;;;;;;;4995610;28;20038;-65
2022/11/01 10:45:15;;;;;;;4.82;2.60;;;;;;;;;;4995621;28;20081;-65
2022/11/01 10:47:42;;;;;;;5.25;2.95;;;;;;;;;;4994014;28;20528;-65
2022/11/01 10:50:13;;;;;;;5.22;2.92;;;;;;;;;;5011815;28;20034;-64
2022/11/01 10:52:59;;;;;;;5.82;2.85;;;;;;;;;;4994121;28;20062;-64
2022/11/01 10:55:34;;;;;;;5.43;2.72;;;;;;;;;;4994470;28;20073;-65
2022/11/01 10:58:07;;;;;;;4.32;2.15;;;;;;;;;;4993659;28;20049;-64
2022/11/01 11:00:35;;;;;;;5.50;2.85;;;;;;;;;;4999233;28;20052;-64
2022/11/01 11:03:07;;;;;;;5.18;2.95;;;;;;;;;;4995230;28;20592;-65
2022/11/01 11:05:34;;;;;;;5.20;2.78;;;;;;;;;;4995718;28;20042;-65
2022/11/01 11:08:03;;;;;;;6.75;3.33;;;;;;;;;;4995854;28;20038;-63
2022/11/01 11:10:30;;;;;;;5.40;3.00;;;;;;;;;;4994758;28;20129;-63
2022/11/01 11:12:57;;;;;;;5.43;3.08;;;;;;;;;;4995558;28;20044;-63
2022/11/01 11:15:44;;;;;;;3.35;1.73;;;;;;;;;;4995688;28;20117;-65
2022/11/01 11:18:24;;;;;;;5.93;3.05;;;;;;;;;;4995190;28;20516;-65
2022/11/01 11:20:52;;;;;;;5.20;3.10;;;;;;;;;;4994863;28;20038;-64
2022/11/01 11:23:21;;;;;;;6.32;2.80;;;;;;;;;;4994597;28;20073;-66
2022/11/01 11:25:49;;;;;;;5.20;2.50;;;;;;;;;;4995450;28;20033;-65
2022/11/01 11:28:41;;;;;;;4.05;2.15;;;;;;;;;;4995211;28;20042;-63
2022/11/01 11:31:27;;;;;;;3.90;1.75;;;;;;;;;;4988382;28;20161;-62
2022/11/01 11:34:03;;;;;;;8.68;3.78;;;;;;;;;;4993930;28;20053;-63
2022/11/01 11:36:42;;;;;;;4.95;2.53;;;;;;;;;;4993397;28;20099;-62
2022/11/01 11:39:23;;;;;;;5.20;2.78;;;;;;;;;;4993789;28;20061;-64
2022/11/01 11:41:50;;;;;;;4.75;2.40;;;;;;;;;;4993498;28;20121;-63
2022/11/01 11:44:36;;;;;;;7.40;3.05;;;;;;;;;;4995272;28;20072;-63
2022/11/01 11:47:03;;;;;;;4.82;2.53;;;;;;;;;;4981322;28;20330;-63
2022/11/01 11:49:31;;;;;;;5.55;2.38;;;;;;;;;;4993508;28;20053;-64
2022/11/01 11:51:58;;;;;;;5.05;2.63;;;;;;;;;;4993215;28;20524;-63
2022/11/01 11:54:31;;;;;;;5.28;2.70;;;;;;;;;;4993302;28;20057;-64
2022/11/01 11:57:16;;;;;;;5.00;2.67;;;;;;;;;;4993319;28;20053;-64
2022/11/01 11:59:44;;;;;;;4.75;2.58;;;;;;;;;;4993021;28;20132;-63
2022/11/01 12:02:18;;;;;;;4.70;2.22;;;;;;;;;;4993316;28;20036;-64
2022/11/01 12:04:46;;;;;;;5.25;2.63;;;;;;;;;;4993009;28;20929;-62
2022/11/01 12:07:23;;;;;;;5.70;2.55;;;;;;;;;;4991877;28;20049;-63
2022/11/01 12:09:50;;;;;;;3.55;1.55;;;;;;;;;;4994299;28;20062;-63
2022/11/01 12:12:22;;;;;;;4.88;2.72;;;;;;;;;;4992897;28;20567;-64
2022/11/01 12:14:49;;;;;;;4.83;2.43;;;;;;;;;;4992849;28;20124;-64
2022/11/01 12:17:41;;;;;;;4.32;2.70;;;;;;;;;;4993096;28;20292;-64
2022/11/01 12:20:16;;;;;;;5.68;2.75;;;;;;;;;;4989092;28;20419;-63
2022/11/01 12:22:45;;;;;;;3.38;1.80;;;;;;;;;;4993073;28;20057;-63
2022/11/01 12:25:31;;;;;;;4.15;2.22;;;;;;;;;;4991876;28;20050;-63
2022/11/01 12:28:00;;;;;;;5.78;2.95;;;;;;;;;;4992239;28;20042;-63
2022/11/01 12:30:28;;;;;;;4.63;2.53;;;;;;;;;;4992870;28;20038;-63
2022/11/01 12:32:56;;;;;;;2.67;1.17;;;;;;;;;;4993312;28;20049;-64
2022/11/01 12:35:29;;;;;;;5.05;2.55;;;;;;;;;;4994340;28;20099;-62
2022/11/01 12:38:09;;;;;;;8.30;2.95;;;;;;;;;;4993143;28;20049;-63
2022/11/01 12:40:37;;;;;;;5.25;2.97;;;;;;;;;;4991676;28;20030;-63
2022/11/01 12:43:12;;;;;;;5.20;3.00;;;;;;;;;;4987445;28;20400;-64
2022/11/01 12:45:57;;;;;;;5.85;3.50;;;;;;;;;;4988095;28;20949;-62
2022/11/01 12:48:30;;;;;;;5.55;3.33;;;;;;;;;;4991381;28;20070;-60
2022/11/01 12:51:16;;;;;;;4.95;2.88;;;;;;;;;;4992959;28;20493;-60
2022/11/01 12:53:53;;;;;;;6.30;3.40;;;;;;;;;;4991181;28;20040;-62
2022/11/01 12:56:20;;;;;;;6.60;3.60;;;;;;;;;;4992141;28;20762;-62
2022/11/01 12:58:47;;;;;;;6.65;3.47;;;;;;;;;;4993841;28;20042;-65
2022/11/01 13:01:13;;;;;;;7.45;3.72;;;;;;;;;;4991922;28;20072;-62
2022/11/01 13:03:40;;;;;;;6.78;3.63;;;;;;;;;;4992293;28;20037;-63
2022/11/01 13:06:15;;;;;;;5.55;2.95;;;;;;;;;;4990558;28;20054;-60
2022/11/01 13:08:46;;;;;;;6.32;3.88;;;;;;;;;;4992499;28;20493;-62
2022/11/01 13:11:16;;;;;;;7.95;3.45;;;;;;;;;;4993400;28;20049;-61
2022/11/01 13:13:47;;;;;;;6.70;3.88;;;;;;;;;;4989036;28;20530;-65
2022/11/01 13:16:25;;;;;;;8.60;4.60;;;;;;;;;;5009258;28;20508;-63
2022/11/01 13:18:58;;;;;;;6.88;4.10;;;;;;;;;;4991672;28;20085;-65
2022/11/01 13:21:24;;;;;;;6.50;4.10;;;;;;;;;;4992700;28;20074;-62
2022/11/01 13:23:54;;;;;;;6.57;4.18;;;;;;;;;;4993637;28;20038;-64
2022/11/01 13:26:24;;;;;;;6.32;4.10;;;;;;;;;;4991641;28;20125;-63
2022/11/01 13:28:57;;;;;;;6.28;3.90;;;;;;;;;;4992153;28;20038;-65
2022/11/01 13:31:43;;;;;;;6.55;3.55;;;;;;;;;;4992094;28;20099;-63
2022/11/01 13:34:15;;;;;;;6.88;4.13;;;;;;;;;;4992921;28;20057;-63
2022/11/01 13:36:42;;;;;;;8.77;4.90;;;;;;;;;;4992204;28;20149;-64
2022/11/01 13:39:18;;;;;;;7.13;4.28;;;;;;;;;;4991783;28;20740;-62
2022/11/01 13:41:51;;;;;;;8.20;4.38;;;;;;;;;;4992251;28;20072;-63
2022/11/01 13:44:22;;;;;;;7.53;3.83;;;;;;;;;;4992213;28;20030;-63
2022/11/01 13:47:07;;;;;;;6.43;4.10;;;;;;;;;;4992202;28;20638;-64
2022/11/01 13:49:51;;;;;;;7.95;3.55;;;;;;;;;;4991926;28;20758;-62
2022/11/01 13:52:22;;;;;;;6.60;3.83;;;;;;;;;;4985522;28;20069;-64
2022/11/01 13:55:02;;;;;;;6.95;4.00;;;;;;;;;;4993339;28;20045;-63
2022/11/01 13:57:29;;;;;;;7.40;3.97;;;;;;;;;;4995451;28;20088;-65
2022/11/01 13:59:57;;;;;;;6.97;3.97;;;;;;;;;;4995446;28;20160;-64
2022/11/01 14:02:23;;;;;;;7.80;3.60;;;;;;;;;;4991943;28;20034;-65
2022/11/01 14:04:53;;;;;;;6.30;3.40;;;;;;;;;;4995755;28;22043;-64
2022/11/01 14:10:45;;;;;;;7.32;3.97;;;;;;;;;;5086528;27;20449;-62
2022/11/01 14:13:16;;;;;;;6.00;3.30;;;;;;;;;;5054912;28;20040;-63
2022/11/01 14:15:54;;;;;;;5.50;3.33;;;;;;;;;;5048094;28;20042;-61
2022/11/01 14:18:21;;;;;;;6.80;4.00;;;;;;;;;;5074457;28;20173;-66
2022/11/01 14:20:49;;;;;;;6.68;3.80;;;;;;;;;;5052057;28;20029;-61
2022/11/01 14:23:28;;;;;;;5.68;3.20;;;;;;;;;;5053823;28;20036;-63
2022/11/01 14:26:13;;;;;;;6.38;3.45;;;;;;;;;;5061708;28;20044;-62
2022/11/01 14:28:43;;;;;;;5.80;3.47;;;;;;;;;;5052845;28;20065;-63
2022/11/01 14:31:10;;;;;;;5.43;3.20;;;;;;;;;;5053440;28;20493;-63
2022/11/01 14:33:37;;;;;;;8.18;3.78;;;;;;;;;;5056552;28;20079;-63
2022/11/01 14:36:05;;;;;;;6.75;3.38;;;;;;;;;;5055213;28;20040;-64
2022/11/01 14:39:01;;;;;;;6.25;3.70;;;;;;;;;;5055659;28;20036;-62
2022/11/01 14:41:29;;;;;;;8.00;4.20;;;;;;;;;;5041589;28;20047;-63
2022/11/01 14:44:11;;;;;;;7.15;4.18;;;;;;;;;;5053458;28;20094;-62
2022/11/01 14:46:40;;;;;;;7.32;3.88;;;;;;;;;;5053934;28;20074;-63
2022/11/01 14:49:12;;;;;;;6.80;4.10;;;;;;;;;;5052777;28;20045;-63
2022/11/01 14:51:58;;;;;;;6.80;3.88;;;;;;;;;;5051115;28;20499;-63
2022/11/01 14:54:24;;;;;;;7.15;4.00;;;;;;;;;;5051215;28;20527;-63
2022/11/01 14:56:52;;;;;;;6.72;4.13;;;;;;;;;;5066841;28;20520;-63
2022/11/01 14:59:23;;;;;;;7.30;4.13;;;;;;;;;;5051358;28;20038;-63
2022/11/01 15:01:51;;;;;;;6.57;3.30;;;;;;;;;;5051505;28;20033;-62
2022/11/01 15:04:44;;;;;;;7.30;3.53;;;;;;;;;;5051672;28;20063;-62
2022/11/01 15:07:20;;;;;;;4.03;1.92;;;;;;;;;;5051537;28;20115;-62
2022/11/01 15:09:58;;;;;;;6.43;3.80;;;;;;;;;;5053807;28;20125;-62
2022/11/01 15:12:26;;;;;;;6.20;3.28;;;;;;;;;;5054941;28;20587;-62